Time;durP1;ratioP1;P1;durP2;ratioP2;P2;SDS_P1;SDS_P2;PMS_P1;PMS_P2;Temp;Humidity;BMP_temperature;BMP_pressure;BME280_temperature;BME280_humidity;BME280_pressure;Samples;Min_cycle;Max_cycle;Signal;HPM_P1;HPM_P2
2021/06/15 00:01:57;;;;;;;;;;;;;;;20.70;66.62;100745.06;4949269;29;1801;-45
2021/06/15 00:04:24;;;;;;;;;;;;;;;20.66;66.19;100731.91;4941762;29;1713;-46
2021/06/15 00:06:52;;;;;;;;;;;;;;;20.68;66.42;100747.03;4947620;29;1906;-43
2021/06/15 00:09:18;;;;;;;;;;;;;;;20.68;66.89;100729.06;4946323;28;1784;-43
2021/06/15 00:11:45;;;;;;;;;;;;;;;20.69;66.09;100740.66;4943851;29;1662;-43
2021/06/15 00:14:12;;;;;;;;;;;;;;;20.65;65.83;100735.59;4950194;29;1668;-43
2021/06/15 00:16:39;;;;;;;;;;;;;;;20.62;65.85;100735.88;4947485;29;1620;-43
2021/06/15 00:19:05;;;;;;;;;;;;;;;20.64;65.93;100739.25;4949317;29;1669;-44
2021/06/15 00:21:32;;;;;;;;;;;;;;;20.63;64.99;100732.22;4949677;29;1571;-43
2021/06/15 00:24:00;;;;;;;;;;;;;;;20.64;65.29;100722.31;4949517;29;3218;-42
2021/06/15 00:26:26;;;;;;;;;;;;;;;20.67;66.48;100711.25;4948279;29;1979;-43
2021/06/15 00:28:53;;;;;;;;;;;;;;;20.66;65.33;100721.16;4952626;29;1692;-46
2021/06/15 00:31:23;;;;;;;;;;;;;;;20.65;65.90;100715.91;4952303;29;1476;-44
2021/06/15 00:33:50;;;;;;;;;;;;;;;20.63;66.50;100716.09;4949775;29;2414;-44
2021/06/15 00:36:16;;;;;;;;;;;;;;;20.60;66.11;100721.75;4949362;29;1849;-44
2021/06/15 00:38:43;;;;;;;;;;;;;;;20.60;66.79;100724.44;4940080;29;1761;-44
2021/06/15 00:41:11;;;;;;;;;;;;;;;20.64;66.27;100717.75;4941284;29;1755;-45
2021/06/15 00:43:37;;;;;;;;;;;;;;;20.58;65.94;100712.94;4948538;29;1846;-44
2021/06/15 00:46:04;;;;;;;;;;;;;;;20.59;67.05;100686.97;4952036;29;1919;-44
2021/06/15 00:48:33;;;;;;;;;;;;;;;20.58;65.45;100718.31;4951363;29;1811;-45
2021/06/15 00:51:00;;;;;;;;;;;;;;;20.56;66.26;100695.28;4946542;29;1693;-44
2021/06/15 00:53:27;;;;;;;;;;;;;;;20.55;66.96;100705.19;4939625;29;1815;-44
2021/06/15 00:55:54;;;;;;;;;;;;;;;20.54;67.08;100714.25;4922894;29;1889;-44
2021/06/15 00:58:22;;;;;;;;;;;;;;;20.52;67.67;100708.16;4928935;29;1470;-44
2021/06/15 01:00:48;;;;;;;;;;;;;;;20.54;66.44;100714.25;4932418;29;1827;-44
2021/06/15 01:03:16;;;;;;;;;;;;;;;20.51;67.36;100701.09;4922905;29;1709;-44
2021/06/15 01:05:43;;;;;;;;;;;;;;;20.51;67.08;100713.69;4923089;29;1779;-44
2021/06/15 01:08:14;;;;;;;;;;;;;;;20.55;66.97;100705.19;4923047;29;1934;-44
2021/06/15 01:10:45;;;;;;;;;;;;;;;20.56;66.10;100714.94;4923229;29;1515;-44
2021/06/15 01:13:17;;;;;;;;;;;;;;;20.51;67.04;100714.53;4922178;29;1665;-44
2021/06/15 01:15:48;;;;;;;;;;;;;;;20.54;67.35;100713.41;4935886;29;1546;-45
2021/06/15 01:18:18;;;;;;;;;;;;;;;20.51;66.65;100727.94;4925162;29;1648;-44
2021/06/15 01:20:47;;;;;;;;;;;;;;;20.48;66.65;100722.88;4928191;29;1537;-44
2021/06/15 01:23:30;;;;;;;;;;;;;;;20.48;67.29;100711.31;4929354;29;1567;-45
2021/06/15 01:26:01;;;;;;;;;;;;;;;20.45;67.17;100717.78;4928896;29;1617;-44
2021/06/15 01:28:31;;;;;;;;;;;;;;;20.46;66.73;100719.50;4940202;29;1960;-44
2021/06/15 01:30:59;;;;;;;;;;;;;;;20.43;66.34;100706.34;4935150;29;2348;-44
2021/06/15 01:33:27;;;;;;;;;;;;;;;20.42;65.46;100702.81;4931697;29;1553;-44
2021/06/15 01:35:55;;;;;;;;;;;;;;;20.43;66.05;100709.91;4924821;29;1966;-44
2021/06/15 01:38:26;;;;;;;;;;;;;;;20.43;66.39;100704.53;4933234;29;1634;-44
2021/06/15 01:40:54;;;;;;;;;;;;;;;20.41;67.26;100711.03;4934984;29;1674;-44
2021/06/15 01:43:23;;;;;;;;;;;;;;;20.41;66.46;100700.28;4931614;29;1630;-43
2021/06/15 01:45:53;;;;;;;;;;;;;;;20.40;67.04;100712.88;4933758;29;1647;-43
2021/06/15 01:48:25;;;;;;;;;;;;;;;20.36;66.48;100710.63;4927209;29;1915;-43
2021/06/15 01:50:54;;;;;;;;;;;;;;;20.36;66.72;100706.09;4933323;29;1911;-43
2021/06/15 01:53:21;;;;;;;;;;;;;;;20.37;66.75;100701.56;4932714;29;1644;-43
2021/06/15 01:55:49;;;;;;;;;;;;;;;20.37;67.49;100704.25;4946107;29;1701;-44
2021/06/15 01:58:16;;;;;;;;;;;;;;;20.37;66.72;100713.19;4947040;29;1603;-43
2021/06/15 02:03:15;;;;;;;;;;;;;;;20.33;66.93;100721.66;4985576;28;1614;-42
2021/06/15 02:05:44;;;;;;;;;;;;;;;20.34;66.78;100731.41;4992438;28;1626;-42
2021/06/15 02:11:04;;;;;;;;;;;;;;;20.33;67.34;100729.72;4987595;28;1779;-42
2021/06/15 02:13:34;;;;;;;;;;;;;;;20.34;66.31;100726.03;4992021;28;1803;-43
2021/06/15 02:16:09;;;;;;;;;;;;;;;20.34;65.54;100753.75;4987987;28;1728;-42
2021/06/15 02:18:49;;;;;;;;;;;;;;;20.34;66.89;100743.00;4995231;28;2010;-42
2021/06/15 02:21:36;;;;;;;;;;;;;;;20.33;65.43;100735.91;4994630;28;1937;-43
2021/06/15 02:24:06;;;;;;;;;;;;;;;20.34;66.24;100758.28;4993801;28;2006;-42
2021/06/15 02:26:33;;;;;;;;;;;;;;;20.33;65.14;100760.09;4994272;28;1961;-42
2021/06/15 02:29:03;;;;;;;;;;;;;;;20.31;65.48;100758.56;4991315;28;2014;-42
2021/06/15 02:31:39;;;;;;;;;;;;;;;20.35;65.17;100744.72;4994945;28;1859;-44
2021/06/15 02:34:14;;;;;;;;;;;;;;;20.32;63.79;100762.94;4994196;28;1439;-42
2021/06/15 02:36:43;;;;;;;;;;;;;;;20.30;66.46;100740.75;4995511;28;1829;-43
2021/06/15 02:39:11;;;;;;;;;;;;;;;20.30;66.46;100754.19;4994590;28;1719;-43
2021/06/15 02:41:39;;;;;;;;;;;;;;;20.27;66.40;100758.84;4994466;28;1962;-41
2021/06/15 02:44:15;;;;;;;;;;;;;;;20.25;65.15;100755.47;4992217;28;1879;-42
2021/06/15 02:46:43;;;;;;;;;;;;;;;20.26;66.25;100756.31;4991595;28;1969;-42
2021/06/15 02:49:17;;;;;;;;;;;;;;;20.26;65.68;100753.63;4992852;28;1722;-43
2021/06/15 02:51:55;;;;;;;;;;;;;;;20.25;66.99;100760.84;4994198;28;1676;-43
2021/06/15 02:54:27;;;;;;;;;;;;;;;20.28;65.83;100762.38;4991442;28;2321;-43
2021/06/15 02:56:57;;;;;;;;;;;;;;;20.22;66.36;100755.75;4991896;28;1605;-42
2021/06/15 02:59:31;;;;;;;;;;;;;;;20.19;64.76;100758.72;4994766;28;2053;-42
2021/06/15 03:02:01;;;;;;;;;;;;;;;20.22;64.96;100754.91;4992533;28;1669;-43
2021/06/15 03:04:33;;;;;;;;;;;;;;;20.25;65.30;100759.97;4992482;28;1774;-42
2021/06/15 03:07:00;;;;;;;;;;;;;;;20.27;65.72;100755.31;4994146;28;1914;-42
2021/06/15 03:09:27;;;;;;;;;;;;;;;20.21;64.58;100754.06;4994288;28;1929;-43
2021/06/15 03:12:15;;;;;;;;;;;;;;;20.23;66.26;100767.31;4987769;28;1720;-42
2021/06/15 03:14:45;;;;;;;;;;;;;;;20.23;65.26;100773.56;4989943;28;1839;-42
2021/06/15 03:17:35;;;;;;;;;;;;;;;20.21;65.37;100753.19;4993992;28;1832;-43
2021/06/15 03:20:16;;;;;;;;;;;;;;;20.25;64.63;100774.25;4989077;28;1906;-42
2021/06/15 03:22:48;;;;;;;;;;;;;;;20.24;65.12;100767.19;4992116;28;1709;-42
2021/06/15 03:25:29;;;;;;;;;;;;;;;20.22;66.65;100766.47;4993828;28;1963;-44
2021/06/15 03:27:59;;;;;;;;;;;;;;;20.26;65.56;100780.47;4988284;28;2012;-42
2021/06/15 03:30:27;;;;;;;;;;;;;;;20.18;66.07;100748.97;4993405;28;1747;-44
2021/06/15 03:32:58;;;;;;;;;;;;;;;20.21;66.00;100772.84;4985842;28;1912;-41
2021/06/15 03:35:30;;;;;;;;;;;;;;;20.21;66.39;100780.03;4993704;28;1501;-42
2021/06/15 03:38:04;;;;;;;;;;;;;;;20.19;65.12;100793.63;4990812;28;1871;-42
2021/06/15 03:40:34;;;;;;;;;;;;;;;20.15;64.85;100770.72;4970030;28;1557;-42
2021/06/15 03:43:04;;;;;;;;;;;;;;;20.15;65.43;100781.47;4994194;28;1686;-42
2021/06/15 03:45:51;;;;;;;;;;;;;;;20.15;65.65;100778.78;4993667;28;1496;-42
2021/06/15 03:48:18;;;;;;;;;;;;;;;20.16;65.13;100788.53;4993396;28;1944;-42
2021/06/15 03:50:48;;;;;;;;;;;;;;;20.17;64.32;100792.91;4993827;28;1796;-43
2021/06/15 03:53:33;;;;;;;;;;;;;;;20.16;64.33;100760.84;4990994;28;1876;-43
2021/06/15 03:56:20;;;;;;;;;;;;;;;20.20;63.68;100775.69;4984462;28;1648;-43
2021/06/15 03:58:48;;;;;;;;;;;;;;;20.20;64.67;100784.56;4985288;28;1634;-43
2021/06/15 04:01:25;;;;;;;;;;;;;;;20.27;64.41;100772.28;4993417;28;1710;-44
2021/06/15 04:03:53;;;;;;;;;;;;;;;20.32;65.66;100771.00;4991938;28;1703;-42
2021/06/15 04:06:24;;;;;;;;;;;;;;;20.33;65.33;100767.31;4991360;28;1590;-42
2021/06/15 04:09:02;;;;;;;;;;;;;;;20.37;64.92;100784.81;4991873;28;2311;-42
2021/06/15 04:11:30;;;;;;;;;;;;;;;20.36;64.68;100767.03;4993093;28;1772;-43
2021/06/15 04:14:00;;;;;;;;;;;;;;;20.37;64.73;100771.41;4992472;28;1615;-42
2021/06/15 04:19:12;;;;;;;;;;;;;;;20.46;65.85;100765.16;4991000;28;2523;-43
2021/06/15 04:21:43;;;;;;;;;;;;;;;20.51;66.21;100770.94;4985877;28;1635;-44
2021/06/15 04:24:24;;;;;;;;;;;;;;;20.48;65.50;100755.13;4990252;28;1669;-42
2021/06/15 04:26:51;;;;;;;;;;;;;;;20.46;65.75;100763.31;4990605;28;1627;-42
2021/06/15 04:29:20;;;;;;;;;;;;;;;20.50;65.98;100774.63;4992281;28;2049;-42
2021/06/15 04:31:51;;;;;;;;;;;;;;;20.52;66.72;100766.44;4992209;28;1610;-42
2021/06/15 04:37:09;;;;;;;;;;;;;;;20.51;67.06;100753.97;4982465;28;1601;-43
2021/06/15 04:39:53;;;;;;;;;;;;;;;20.51;66.86;100752.13;4989057;28;1591;-43
2021/06/15 04:42:35;;;;;;;;;;;;;;;20.49;65.65;100766.72;4991553;28;1547;-42
2021/06/15 04:45:08;;;;;;;;;;;;;;;20.49;67.40;100745.22;4984333;28;1597;-42
2021/06/15 04:50:28;;;;;;;;;;;;;;;20.44;66.77;100756.41;4990118;28;2191;-42
2021/06/15 04:52:59;;;;;;;;;;;;;;;20.45;66.86;100760.78;4986023;28;1768;-43
2021/06/15 04:55:28;;;;;;;;;;;;;;;20.49;67.04;100772.91;4989812;28;1815;-43
2021/06/15 04:57:56;;;;;;;;;;;;;;;20.44;67.04;100761.78;4984834;28;1496;-42
2021/06/15 05:00:29;;;;;;;;;;;;;;;20.39;66.16;100767.59;4991812;28;1556;-43
2021/06/15 05:02:57;;;;;;;;;;;;;;;20.39;66.58;100758.66;4986043;28;1959;-43
2021/06/15 05:05:32;;;;;;;;;;;;;;;20.41;67.14;100778.16;4988562;28;1702;-42
2021/06/15 05:08:03;;;;;;;;;;;;;;;20.43;66.48;100770.81;4984950;28;1903;-42
2021/06/15 05:10:31;;;;;;;;;;;;;;;20.44;67.60;100754.56;4982617;28;1566;-42
2021/06/15 05:13:02;;;;;;;;;;;;;;;20.47;66.30;100764.16;4985720;28;1689;-43
2021/06/15 05:15:31;;;;;;;;;;;;;;;20.49;66.54;100751.44;4983792;28;1943;-43
2021/06/15 05:17:57;;;;;;;;;;;;;;;20.31;65.93;100759.38;4982904;28;1535;-42
2021/06/15 05:20:25;;;;;;;;;;;;;;;20.42;66.48;100771.81;4991638;28;1787;-42
2021/06/15 05:22:57;;;;;;;;;;;;;;;20.46;66.19;100776.75;4988234;28;1624;-44
2021/06/15 05:25:28;;;;;;;;;;;;;;;20.46;65.50;100767.84;4988807;28;1360;-42
2021/06/15 05:27:54;;;;;;;;;;;;;;;20.48;64.64;100778.47;4985127;28;1898;-42
2021/06/15 05:30:21;;;;;;;;;;;;;;;20.57;64.27;100780.25;4987206;28;1475;-45
2021/06/15 05:32:49;;;;;;;;;;;;;;;20.58;64.00;100787.34;4984341;28;1554;-43
2021/06/15 05:35:16;;;;;;;;;;;;;;;20.56;64.27;100784.78;4988813;28;1607;-42
2021/06/15 05:37:45;;;;;;;;;;;;;;;20.59;63.88;100803.34;4989605;28;1556;-42
2021/06/15 05:40:19;;;;;;;;;;;;;;;20.57;63.78;100799.94;4990781;28;2190;-42
2021/06/15 05:42:46;;;;;;;;;;;;;;;20.54;63.79;100794.84;4992216;28;1654;-42
2021/06/15 05:45:14;;;;;;;;;;;;;;;20.56;64.13;100782.09;4987244;28;1625;-43
2021/06/15 05:47:42;;;;;;;;;;;;;;;20.58;63.22;100798.94;4983435;28;1910;-43
2021/06/15 05:50:10;;;;;;;;;;;;;;;20.57;63.58;100786.50;4991047;28;1517;-42
2021/06/15 05:52:36;;;;;;;;;;;;;;;20.64;64.01;100781.41;4983782;28;1940;-43
2021/06/15 05:55:04;;;;;;;;;;;;;;;20.63;63.60;100809.25;4990042;28;2967;-42
2021/06/15 05:57:32;;;;;;;;;;;;;;;20.64;63.43;100814.50;4991730;28;1682;-43
2021/06/15 05:59:59;;;;;;;;;;;;;;;20.62;64.28;100813.78;4989480;28;2333;-42
2021/06/15 06:02:25;;;;;;;;;;;;;;;20.61;63.09;100809.44;4979961;28;1627;-44
2021/06/15 06:05:03;;;;;;;;;;;;;;;20.68;63.17;100803.47;4988967;28;1552;-43
2021/06/15 06:10:14;;;;;;;;;;;;;;;20.72;64.22;100794.97;4975547;28;2196;-44
2021/06/15 06:12:41;;;;;;;;;;;;;;;20.72;63.44;100789.59;4988357;28;1812;-43
2021/06/15 06:15:08;;;;;;;;;;;;;;;20.75;63.75;100792.00;4990541;28;1714;-43
2021/06/15 06:17:34;;;;;;;;;;;;;;;20.75;62.49;100783.94;4983371;28;1590;-43
2021/06/15 06:20:01;;;;;;;;;;;;;;;20.75;63.34;100766.94;4981066;28;1568;-43
2021/06/15 06:22:27;;;;;;;;;;;;;;;20.79;63.90;100779.09;4989229;28;1717;-42
2021/06/15 06:24:55;;;;;;;;;;;;;;;20.80;64.01;100783.47;4993763;28;1802;-42
2021/06/15 06:27:23;;;;;;;;;;;;;;;20.80;63.50;100765.50;4995841;28;1595;-43
2021/06/15 06:29:51;;;;;;;;;;;;;;;20.78;61.54;100767.50;4992107;28;1906;-43
2021/06/15 06:32:17;;;;;;;;;;;;;;;20.76;62.12;100774.03;4986994;28;1661;-42
2021/06/15 06:34:44;;;;;;;;;;;;;;;20.77;62.75;100773.00;4993438;28;1952;-43
2021/06/15 06:37:10;;;;;;;;;;;;;;;20.82;63.30;100768.06;4981923;28;1558;-43
2021/06/15 06:39:38;;;;;;;;;;;;;;;20.82;63.49;100768.06;4986930;28;1628;-46
2021/06/15 06:42:06;;;;;;;;;;;;;;;20.90;64.10;100784.28;4987467;28;1754;-43
2021/06/15 06:44:33;;;;;;;;;;;;;;;20.88;64.51;100772.00;4994592;28;1731;-43
2021/06/15 06:46:59;;;;;;;;;;;;;;;20.86;64.03;100772.97;4983384;28;1598;-43
2021/06/15 06:49:26;;;;;;;;;;;;;;;20.82;63.65;100774.28;4981704;28;1907;-42
2021/06/15 06:51:52;;;;;;;;;;;;;;;20.83;63.56;100758.97;4992836;28;1561;-42
2021/06/15 06:54:19;;;;;;;;;;;;;;;20.81;64.12;100766.34;4988843;28;1490;-43
2021/06/15 06:56:45;;;;;;;;;;;;;;;20.84;63.40;100771.44;4992002;28;1766;-43
2021/06/15 06:59:17;;;;;;;;;;;;;;;20.84;63.98;100760.69;4993669;28;1685;-42
2021/06/15 07:01:45;;;;;;;;;;;;;;;20.87;63.01;100765.78;4985057;28;1774;-42
2021/06/15 07:04:13;;;;;;;;;;;;;;;20.85;63.92;100757.03;4973696;28;1632;-42
2021/06/15 07:09:20;;;;;;;;;;;;;;;20.89;63.84;100747.66;4974527;28;1985;-43
2021/06/15 07:11:46;;;;;;;;;;;;;;;20.87;62.43;100755.03;4975794;28;1514;-43
2021/06/15 07:14:14;;;;;;;;;;;;;;;20.88;63.39;100734.38;4975029;28;1757;-43
2021/06/15 07:16:41;;;;;;;;;;;;;;;20.81;62.86;100731.41;4975031;28;1539;-43
2021/06/15 07:19:15;;;;;;;;;;;;;;;20.86;63.63;100731.81;4975085;28;1493;-43
2021/06/15 07:21:42;;;;;;;;;;;;;;;20.84;63.43;100713.16;4974208;28;1789;-43
2021/06/15 07:24:09;;;;;;;;;;;;;;;20.93;62.55;100727.56;4974928;28;1508;-43
2021/06/15 07:26:37;;;;;;;;;;;;;;;20.70;63.26;100710.13;4977771;28;1548;-43
2021/06/15 07:29:03;;;;;;;;;;;;;;;20.76;62.49;100710.38;4973054;28;1906;-44
2021/06/15 07:31:36;;;;;;;;;;;;;;;20.77;62.54;100714.75;4974595;28;1590;-44
2021/06/15 07:34:05;;;;;;;;;;;;;;;20.79;62.24;100703.84;4973536;28;1762;-44
2021/06/15 07:36:33;;;;;;;;;;;;;;;20.74;61.96;100711.50;4974451;28;1951;-44
2021/06/15 07:39:00;;;;;;;;;;;;;;;20.74;62.68;100706.13;4973571;28;1755;-43
2021/06/15 07:41:27;;;;;;;;;;;;;;;20.77;62.48;100701.31;4974816;28;1557;-44
2021/06/15 07:43:55;;;;;;;;;;;;;;;20.79;62.96;100709.22;4973234;28;1571;-44
2021/06/15 07:46:22;;;;;;;;;;;;;;;20.80;62.89;100697.47;4975415;28;1527;-43
2021/06/15 07:48:53;;;;;;;;;;;;;;;20.76;62.22;100707.69;4975418;28;1907;-43
2021/06/15 07:51:21;;;;;;;;;;;;;;;20.74;61.98;100703.47;4974370;28;1561;-44
2021/06/15 07:54:08;;;;;;;;;;;;;;;20.76;63.36;100699.63;4974899;28;1770;-43
2021/06/15 07:56:37;;;;;;;;;;;;;;;20.82;63.15;100703.56;4974735;28;1700;-43
2021/06/15 07:59:04;;;;;;;;;;;;;;;20.81;62.99;100688.41;4957872;28;1565;-43
2021/06/15 08:01:30;;;;;;;;;;;;;;;20.74;62.46;100685.47;4974453;28;1890;-43
2021/06/15 08:03:58;;;;;;;;;;;;;;;20.70;62.74;100686.78;4975373;28;1156;-43
2021/06/15 08:06:25;;;;;;;;;;;;;;;20.76;62.17;100693.41;4974115;28;1749;-43
2021/06/15 08:08:51;;;;;;;;;;;;;;;20.78;62.01;100673.44;4973595;28;1910;-43
2021/06/15 08:11:18;;;;;;;;;;;;;;;20.82;62.72;100682.88;4969434;28;1518;-42
2021/06/15 08:13:45;;;;;;;;;;;;;;;20.85;62.47;100679.91;4966663;28;1745;-43
2021/06/15 08:16:11;;;;;;;;;;;;;;;20.91;63.70;100669.53;4974274;28;1526;-44
2021/06/15 08:18:38;;;;;;;;;;;;;;;20.90;62.44;100674.09;4973157;28;1580;-43
2021/06/15 08:21:06;;;;;;;;;;;;;;;20.82;62.16;100671.31;4990819;28;1587;-44
2021/06/15 08:23:32;;;;;;;;;;;;;;;20.84;62.83;100674.69;4992903;28;1642;-43
2021/06/15 08:26:02;;;;;;;;;;;;;;;20.82;61.58;100671.31;4994285;28;1716;-44
2021/06/15 08:28:29;;;;;;;;;;;;;;;20.81;61.82;100664.22;4993932;28;1910;-43
2021/06/15 08:31:16;;;;;;;;;;;;;;;20.77;62.71;100662.81;4992814;28;1763;-44
2021/06/15 08:33:44;;;;;;;;;;;;;;;20.82;62.26;100674.00;4993539;28;1534;-43
2021/06/15 08:36:18;;;;;;;;;;;;;;;20.85;62.33;100665.63;4992874;28;1670;-43
2021/06/15 08:38:48;;;;;;;;;;;;;;;20.90;62.22;100657.13;4991841;28;1458;-43
2021/06/15 08:41:19;;;;;;;;;;;;;;;20.92;62.70;100644.38;4992057;28;1586;-44
2021/06/15 08:43:46;;;;;;;;;;;;;;;20.90;62.67;100649.88;4987837;28;1535;-44
2021/06/15 08:46:13;;;;;;;;;;;;;;;20.90;62.75;100649.88;4987815;28;1209;-44
2021/06/15 08:48:42;;;;;;;;;;;;;;;20.86;63.26;100661.94;4990730;28;1973;-43
2021/06/15 08:51:12;;;;;;;;;;;;;;;20.79;61.75;100660.84;4993497;28;1523;-44
2021/06/15 08:54:02;;;;;;;;;;;;;;;20.77;63.56;100658.31;4990436;28;1578;-44
2021/06/15 08:56:38;;;;;;;;;;;;;;;20.75;62.62;100664.81;4991453;28;1716;-43
2021/06/15 08:59:11;;;;;;;;;;;;;;;20.74;62.95;100658.59;4989356;28;1723;-43
2021/06/15 09:01:38;;;;;;;;;;;;;;;20.69;62.88;100670.78;4990298;28;1581;-44
2021/06/15 09:04:04;;;;;;;;;;;;;;;20.74;63.07;100663.97;4991946;28;1639;-44
2021/06/15 09:06:32;;;;;;;;;;;;;;;20.73;63.53;100656.94;4993748;28;1598;-43
2021/06/15 09:08:59;;;;;;;;;;;;;;;20.68;61.29;100647.63;4992333;28;2043;-44
2021/06/15 09:11:26;;;;;;;;;;;;;;;20.62;62.45;100646.38;4989985;28;1813;-43
2021/06/15 09:13:56;;;;;;;;;;;;;;;20.63;62.27;100658.78;4991797;28;1663;-43
2021/06/15 09:16:25;;;;;;;;;;;;;;;20.58;62.33;100643.09;4993354;28;1536;-44
2021/06/15 09:18:55;;;;;;;;;;;;;;;20.58;61.33;100643.09;4992740;28;1470;-44
2021/06/15 09:21:42;;;;;;;;;;;;;;;20.63;62.84;100642.69;4992881;28;1824;-43
2021/06/15 09:24:14;;;;;;;;;;;;;;;20.62;62.27;100644.53;4984541;28;1844;-43
2021/06/15 09:27:05;;;;;;;;;;;;;;;20.64;62.40;100645.22;4993063;28;1492;-43
2021/06/15 09:29:49;;;;;;;;;;;;;;;20.63;62.77;100634.63;4992474;28;1919;-43
2021/06/15 09:32:21;;;;;;;;;;;;;;;20.70;63.02;100640.25;4992753;28;1740;-43
2021/06/15 09:34:52;;;;;;;;;;;;;;;20.73;63.32;100645.31;4991399;28;1656;-43
2021/06/15 09:37:26;;;;;;;;;;;;;;;20.63;63.54;100640.00;4991941;28;1632;-43
2021/06/15 09:39:53;;;;;;;;;;;;;;;20.63;63.10;100635.47;4992084;28;1570;-43
2021/06/15 09:42:21;;;;;;;;;;;;;;;20.60;62.56;100629.56;4991382;28;1671;-44
2021/06/15 09:44:48;;;;;;;;;;;;;;;20.56;62.43;100637.03;4989778;28;1710;-45
2021/06/15 09:47:14;;;;;;;;;;;;;;;20.49;62.13;100638.59;4991420;28;1610;-43
2021/06/15 09:49:43;;;;;;;;;;;;;;;20.51;62.77;100636.63;4991624;28;1906;-43
2021/06/15 09:52:19;;;;;;;;;;;;;;;20.59;63.12;100622.47;4992271;28;1509;-43
2021/06/15 09:54:46;;;;;;;;;;;;;;;20.59;63.83;100634.09;4989327;28;1711;-44
2021/06/15 09:57:19;;;;;;;;;;;;;;;20.63;62.63;100637.31;4991839;28;1636;-44
2021/06/15 09:59:59;;;;;;;;;;;;;;;20.68;62.43;100623.44;4994269;28;1572;-44
2021/06/15 10:02:26;;;;;;;;;;;;;;;20.71;63.32;100636.56;4995541;28;1481;-43
2021/06/15 10:04:54;;;;;;;;;;;;;;;20.73;62.79;100645.31;4995522;28;1760;-44
2021/06/15 10:07:27;;;;;;;;;;;;;;;20.76;63.60;100639.66;4995283;28;1645;-43
2021/06/15 10:09:55;;;;;;;;;;;;;;;20.73;63.66;100635.44;4995292;28;1977;-45
2021/06/15 10:12:22;;;;;;;;;;;;;;;20.75;64.20;100637.94;4996653;28;1555;-43
2021/06/15 10:14:49;;;;;;;;;;;;;;;20.70;63.54;100638.41;4995193;28;1885;-43
2021/06/15 10:17:16;;;;;;;;;;;;;;;20.71;64.51;100632.06;4995473;28;1646;-43
2021/06/15 10:19:42;;;;;;;;;;;;;;;20.71;64.04;100636.56;4995107;28;1654;-43
2021/06/15 10:22:11;;;;;;;;;;;;;;;20.70;64.86;100624.97;4995497;28;1490;-44
2021/06/15 10:24:38;;;;;;;;;;;;;;;20.71;64.77;100629.38;4992867;28;1754;-44
2021/06/15 10:27:05;;;;;;;;;;;;;;;20.71;65.42;100632.06;4996080;28;1414;-44
2021/06/15 10:29:32;;;;;;;;;;;;;;;20.68;65.88;100631.50;4995361;28;1975;-44
2021/06/15 10:31:59;;;;;;;;;;;;;;;20.71;64.66;100618.63;4994751;28;1680;-44
2021/06/15 10:34:46;;;;;;;;;;;;;;;20.71;65.58;100612.38;4993363;28;2223;-43
2021/06/15 10:37:39;;;;;;;;;;;;;;;20.76;65.63;100631.59;4993762;28;2308;-44
2021/06/15 10:40:07;;;;;;;;;;;;;;;20.71;65.88;100620.44;4992687;28;1599;-44
2021/06/15 10:42:34;;;;;;;;;;;;;;;20.73;65.54;100621.13;4995052;28;1880;-43
2021/06/15 10:45:17;;;;;;;;;;;;;;;20.79;66.22;100632.16;4994527;28;1434;-44
2021/06/15 10:48:20;;;;;;;;;;;;;;;20.76;65.26;100624.38;4992766;28;1566;-42
2021/06/15 10:50:57;;;;;;;;;;;;;;;20.69;65.95;100622.44;4994805;28;1985;-44
2021/06/15 10:53:40;;;;;;;;;;;;;;;20.62;66.76;100623.03;4991424;28;1541;-43
2021/06/15 10:59:10;;;;;;;;;;;;;;;20.64;66.42;100626.41;4994638;28;1779;-43
2021/06/15 11:01:40;;;;;;;;;;;;;;;20.66;67.72;100612.84;4986316;28;1563;-44
2021/06/15 11:04:19;;;;;;;;;;;;;;;20.68;67.97;100620.75;4991074;28;1499;-44
2021/06/15 11:06:49;;;;;;;;;;;;;;;20.62;68.55;100624.88;4993475;28;1596;-44
2021/06/15 11:09:23;;;;;;;;;;;;;;;20.61;68.66;100617.81;4989811;28;1552;-43
2021/06/15 11:11:53;;;;;;;;;;;;;;;20.63;68.39;100627.44;4995575;28;1719;-42
2021/06/15 11:14:22;;;;;;;;;;;;;;;20.62;67.99;100614.13;4993680;28;1953;-43
2021/06/15 11:17:00;;;;;;;;;;;;;;;20.64;67.39;100618.34;4994448;28;1669;-43
2021/06/15 11:19:32;;;;;;;;;;;;;;;20.63;68.41;100603.25;4991359;28;1565;-43
2021/06/15 11:22:03;;;;;;;;;;;;;;;20.59;68.38;100596.47;4993776;28;1562;-43
2021/06/15 11:25:00;;;;;;;;;;;;;;;20.63;68.71;100602.38;4994119;28;1594;-43
2021/06/15 11:27:37;;;;;;;;;;;;;;;20.58;68.51;100593.91;4992475;28;1824;-43
2021/06/15 11:30:23;;;;;;;;;;;;;;;20.60;68.61;100586.56;4992207;28;2008;-42
2021/06/15 11:32:58;;;;;;;;;;;;;;;20.58;68.47;100599.28;4990679;28;1447;-44
2021/06/15 11:35:29;;;;;;;;;;;;;;;20.59;68.29;100596.47;4992139;28;1627;-44
2021/06/15 11:37:55;;;;;;;;;;;;;;;20.62;68.08;100596.16;4992480;28;1477;-44
2021/06/15 11:40:27;;;;;;;;;;;;;;;20.61;68.47;100589.13;4991434;28;1633;-44
2021/06/15 11:42:54;;;;;;;;;;;;;;;20.64;67.60;100594.16;4993788;28;1486;-44
2021/06/15 11:45:34;;;;;;;;;;;;;;;20.61;67.63;100578.38;4993989;28;1594;-42
2021/06/15 11:48:17;;;;;;;;;;;;;;;20.64;67.76;100588.78;4993869;28;2241;-42
2021/06/15 11:50:45;;;;;;;;;;;;;;;20.64;68.06;100583.44;4994424;28;1907;-42
2021/06/15 11:53:13;;;;;;;;;;;;;;;20.63;68.19;100581.75;4993539;28;1667;-43
2021/06/15 11:55:42;;;;;;;;;;;;;;;20.62;67.80;100585.41;4993881;28;1598;-43
2021/06/15 11:58:10;;;;;;;;;;;;;;;20.61;69.01;100578.38;4994081;28;1595;-43
2021/06/15 12:03:20;;;;;;;;;;;;;;;20.61;67.45;100567.63;4991470;28;2355;-43
2021/06/15 12:05:51;;;;;;;;;;;;;;;20.63;68.21;100554.88;4994118;28;1632;-42
2021/06/15 12:08:18;;;;;;;;;;;;;;;20.63;67.19;100549.50;4993842;28;1636;-42
2021/06/15 12:10:50;;;;;;;;;;;;;;;20.68;67.64;100557.09;4994096;28;1973;-42
2021/06/15 12:13:21;;;;;;;;;;;;;;;20.68;68.25;100545.53;4991266;28;1617;-43
2021/06/15 12:15:55;;;;;;;;;;;;;;;20.63;67.32;100543.25;4993108;28;1667;-43
2021/06/15 12:18:35;;;;;;;;;;;;;;;20.55;67.55;100522.53;4994101;28;1990;-42
2021/06/15 12:21:03;;;;;;;;;;;;;;;20.61;68.38;100531.81;4993483;28;1702;-43
2021/06/15 12:23:31;;;;;;;;;;;;;;;20.63;68.54;100530.69;4986975;28;1673;-43
2021/06/15 12:26:06;;;;;;;;;;;;;;;20.58;68.84;100524.06;4989724;28;1715;-43
2021/06/15 12:28:33;;;;;;;;;;;;;;;20.57;68.26;100533.09;4990419;28;1653;-43
2021/06/15 12:31:03;;;;;;;;;;;;;;;20.56;67.91;100526.88;4990940;28;1906;-44
2021/06/15 12:33:38;;;;;;;;;;;;;;;20.56;68.54;100526.88;4992302;28;1561;-43
2021/06/15 12:36:06;;;;;;;;;;;;;;;20.58;68.17;100521.38;4992190;28;1610;-43
2021/06/15 12:38:33;;;;;;;;;;;;;;;20.56;68.42;100532.25;4990052;28;1514;-44
2021/06/15 12:41:00;;;;;;;;;;;;;;;20.55;69.07;100529.72;4992044;28;1560;-43
2021/06/15 12:43:29;;;;;;;;;;;;;;;20.55;68.79;100519.84;4993255;28;1607;-43
2021/06/15 12:46:06;;;;;;;;;;;;;;;20.53;68.15;100502.16;4992073;28;1541;-43
2021/06/15 12:48:32;;;;;;;;;;;;;;;20.53;68.11;100526.34;4991960;28;2015;-43
2021/06/15 12:51:09;;;;;;;;;;;;;;;20.55;68.68;100503.72;4991903;28;1975;-44
2021/06/15 12:53:37;;;;;;;;;;;;;;;20.56;69.33;100515.31;4987931;28;1594;-43
2021/06/15 12:56:21;;;;;;;;;;;;;;;20.52;68.31;100508.53;4990391;28;1503;-43
2021/06/15 12:58:50;;;;;;;;;;;;;;;20.52;68.07;100504.00;4990240;28;1746;-43
2021/06/15 13:01:17;;;;;;;;;;;;;;;20.55;68.40;100490.28;4989080;28;1495;-43
2021/06/15 13:03:48;;;;;;;;;;;;;;;20.53;68.18;100494.09;4992680;28;1942;-43
2021/06/15 13:06:15;;;;;;;;;;;;;;;20.54;68.84;100477.00;4990810;28;1634;-43
2021/06/15 13:08:41;;;;;;;;;;;;;;;20.54;68.07;100480.53;4991019;28;1651;-43
2021/06/15 13:11:17;;;;;;;;;;;;;;;20.56;68.52;100485.75;4985121;28;2319;-42
2021/06/15 13:13:56;;;;;;;;;;;;;;;20.53;68.30;100473.47;4990595;28;1923;-44
2021/06/15 13:16:22;;;;;;;;;;;;;;;20.48;69.95;100459.66;4989816;28;1512;-44
2021/06/15 13:18:59;;;;;;;;;;;;;;;20.47;69.29;100479.44;4992614;28;1284;-43
2021/06/15 13:21:43;;;;;;;;;;;;;;;20.48;69.78;100465.03;4992371;28;1864;-43
2021/06/15 13:24:11;;;;;;;;;;;;;;;20.48;69.68;100478.47;4987980;28;1480;-42
2021/06/15 13:26:37;;;;;;;;;;;;;;;20.46;70.12;100459.78;4991690;28;1521;-43
2021/06/15 13:29:09;;;;;;;;;;;;;;;20.49;69.27;100461.31;4988817;28;1819;-43
2021/06/15 13:31:44;;;;;;;;;;;;;;;20.51;69.14;100464.69;4992015;28;1914;-43